sensor_id;sensor_type;location;lat;lon;timestamp;P1;durP1;ratioP1;P2;durP2;ratioP2
73452;SDS011;61687;56.232;43.854;2023-08-21T00:01:15;2.40;;;1.13;;
73452;SDS011;61687;56.232;43.854;2023-08-21T00:03:41;2.60;;;1.20;;
73452;SDS011;61687;56.232;43.854;2023-08-21T00:06:07;3.65;;;2.05;;
73452;SDS011;61687;56.232;43.854;2023-08-21T00:08:33;2.60;;;1.27;;
73452;SDS011;61687;56.232;43.854;2023-08-21T00:10:59;5.32;;;1.52;;
73452;SDS011;61687;56.232;43.854;2023-08-21T00:13:25;3.57;;;1.50;;
73452;SDS011;61687;56.232;43.854;2023-08-21T00:15:51;3.03;;;1.50;;
73452;SDS011;61687;56.232;43.854;2023-08-21T00:18:17;2.63;;;1.30;;
73452;SDS011;61687;56.232;43.854;2023-08-21T00:20:43;2.80;;;1.50;;
73452;SDS011;61687;56.232;43.854;2023-08-21T00:23:09;2.60;;;1.30;;
73452;SDS011;61687;56.232;43.854;2023-08-21T00:25:35;3.17;;;1.45;;
73452;SDS011;61687;56.232;43.854;2023-08-21T00:28:01;3.17;;;1.40;;
73452;SDS011;61687;56.232;43.854;2023-08-21T00:30:27;3.73;;;1.80;;
73452;SDS011;61687;56.232;43.854;2023-08-21T00:32:53;4.60;;;1.65;;
73452;SDS011;61687;56.232;43.854;2023-08-21T00:35:19;3.25;;;1.80;;
73452;SDS011;61687;56.232;43.854;2023-08-21T00:37:45;4.38;;;2.03;;
73452;SDS011;61687;56.232;43.854;2023-08-21T00:40:12;3.95;;;2.13;;
73452;SDS011;61687;56.232;43.854;2023-08-21T00:42:39;4.17;;;2.10;;
73452;SDS011;61687;56.232;43.854;2023-08-21T00:45:05;3.75;;;2.30;;
73452;SDS011;61687;56.232;43.854;2023-08-21T00:47:34;4.55;;;1.73;;
73452;SDS011;61687;56.232;43.854;2023-08-21T00:50:01;3.30;;;2.40;;
73452;SDS011;61687;56.232;43.854;2023-08-21T00:52:29;2.83;;;1.60;;
73452;SDS011;61687;56.232;43.854;2023-08-21T00:54:55;4.10;;;1.92;;
73452;SDS011;61687;56.232;43.854;2023-08-21T00:57:22;3.47;;;1.90;;
73452;SDS011;61687;56.232;43.854;2023-08-21T00:59:48;3.17;;;1.90;;
73452;SDS011;61687;56.232;43.854;2023-08-21T01:02:15;3.60;;;1.98;;
73452;SDS011;61687;56.232;43.854;2023-08-21T01:04:41;6.27;;;2.10;;
73452;SDS011;61687;56.232;43.854;2023-08-21T01:07:07;4.70;;;2.50;;
73452;SDS011;61687;56.232;43.854;2023-08-21T01:09:44;5.28;;;2.15;;
73452;SDS011;61687;56.232;43.854;2023-08-21T01:12:18;4.10;;;2.38;;
73452;SDS011;61687;56.232;43.854;2023-08-21T01:17:31;4.23;;;2.50;;
73452;SDS011;61687;56.232;43.854;2023-08-21T01:20:00;4.38;;;2.63;;
73452;SDS011;61687;56.232;43.854;2023-08-21T01:22:37;5.10;;;2.22;;
73452;SDS011;61687;56.232;43.854;2023-08-21T01:25:06;5.75;;;2.17;;
73452;SDS011;61687;56.232;43.854;2023-08-21T01:27:34;4.38;;;2.60;;
73452;SDS011;61687;56.232;43.854;2023-08-21T01:30:02;4.63;;;2.53;;
73452;SDS011;61687;56.232;43.854;2023-08-21T01:34:57;3.92;;;2.08;;
73452;SDS011;61687;56.232;43.854;2023-08-21T01:37:24;5.80;;;2.22;;
73452;SDS011;61687;56.232;43.854;2023-08-21T01:39:53;3.83;;;1.97;;
73452;SDS011;61687;56.232;43.854;2023-08-21T01:42:19;3.83;;;1.67;;
73452;SDS011;61687;56.232;43.854;2023-08-21T01:44:46;3.00;;;1.63;;
73452;SDS011;61687;56.232;43.854;2023-08-21T01:47:12;6.28;;;2.78;;
73452;SDS011;61687;56.232;43.854;2023-08-21T01:49:38;3.43;;;1.83;;
73452;SDS011;61687;56.232;43.854;2023-08-21T01:52:05;3.80;;;2.10;;
73452;SDS011;61687;56.232;43.854;2023-08-21T01:54:31;4.30;;;2.33;;
73452;SDS011;61687;56.232;43.854;2023-08-21T01:56:57;3.30;;;1.70;;
73452;SDS011;61687;56.232;43.854;2023-08-21T01:59:24;4.00;;;1.97;;
73452;SDS011;61687;56.232;43.854;2023-08-21T02:01:50;3.25;;;1.70;;
73452;SDS011;61687;56.232;43.854;2023-08-21T02:04:16;3.63;;;1.80;;
73452;SDS011;61687;56.232;43.854;2023-08-21T02:06:42;3.33;;;2.00;;
73452;SDS011;61687;56.232;43.854;2023-08-21T02:09:09;4.28;;;2.65;;
73452;SDS011;61687;56.232;43.854;2023-08-21T02:11:36;4.67;;;1.90;;
73452;SDS011;61687;56.232;43.854;2023-08-21T02:14:02;4.72;;;2.13;;
73452;SDS011;61687;56.232;43.854;2023-08-21T02:16:29;5.30;;;2.42;;
73452;SDS011;61687;56.232;43.854;2023-08-21T02:18:55;4.27;;;2.30;;
73452;SDS011;61687;56.232;43.854;2023-08-21T02:21:22;5.85;;;2.17;;
73452;SDS011;61687;56.232;43.854;2023-08-21T02:23:48;4.22;;;2.30;;
73452;SDS011;61687;56.232;43.854;2023-08-21T02:26:14;5.70;;;2.90;;
73452;SDS011;61687;56.232;43.854;2023-08-21T02:28:40;6.70;;;3.30;;
73452;SDS011;61687;56.232;43.854;2023-08-21T02:31:08;6.28;;;2.10;;
73452;SDS011;61687;56.232;43.854;2023-08-21T02:33:36;4.97;;;2.55;;
73452;SDS011;61687;56.232;43.854;2023-08-21T02:36:02;5.38;;;2.20;;
73452;SDS011;61687;56.232;43.854;2023-08-21T02:38:29;4.25;;;1.85;;
73452;SDS011;61687;56.232;43.854;2023-08-21T02:40:56;5.87;;;2.20;;
73452;SDS011;61687;56.232;43.854;2023-08-21T02:43:22;4.03;;;2.17;;
73452;SDS011;61687;56.232;43.854;2023-08-21T02:45:48;3.47;;;2.05;;
73452;SDS011;61687;56.232;43.854;2023-08-21T02:48:14;3.83;;;1.75;;
73452;SDS011;61687;56.232;43.854;2023-08-21T02:50:40;5.37;;;2.23;;
73452;SDS011;61687;56.232;43.854;2023-08-21T02:53:07;4.60;;;1.63;;
73452;SDS011;61687;56.232;43.854;2023-08-21T02:55:34;7.55;;;2.10;;
73452;SDS011;61687;56.232;43.854;2023-08-21T02:57:59;7.28;;;1.90;;
73452;SDS011;61687;56.232;43.854;2023-08-21T03:00:25;5.90;;;1.90;;
73452;SDS011;61687;56.232;43.854;2023-08-21T03:02:51;3.60;;;2.20;;
73452;SDS011;61687;56.232;43.854;2023-08-21T03:05:17;4.88;;;2.38;;
73452;SDS011;61687;56.232;43.854;2023-08-21T03:07:43;6.50;;;2.15;;
73452;SDS011;61687;56.232;43.854;2023-08-21T03:10:10;7.50;;;2.50;;
73452;SDS011;61687;56.232;43.854;2023-08-21T03:12:35;5.07;;;1.70;;
73452;SDS011;61687;56.232;43.854;2023-08-21T03:15:02;4.80;;;2.30;;
73452;SDS011;61687;56.232;43.854;2023-08-21T03:17:30;4.15;;;2.17;;
73452;SDS011;61687;56.232;43.854;2023-08-21T03:19:56;4.00;;;2.42;;
73452;SDS011;61687;56.232;43.854;2023-08-21T03:22:23;4.85;;;2.30;;
73452;SDS011;61687;56.232;43.854;2023-08-21T03:24:49;4.13;;;2.57;;
73452;SDS011;61687;56.232;43.854;2023-08-21T03:27:15;4.47;;;2.92;;
73452;SDS011;61687;56.232;43.854;2023-08-21T03:29:42;5.97;;;2.78;;
73452;SDS011;61687;56.232;43.854;2023-08-21T03:32:15;7.60;;;2.85;;
73452;SDS011;61687;56.232;43.854;2023-08-21T03:34:41;5.72;;;3.40;;
73452;SDS011;61687;56.232;43.854;2023-08-21T03:37:07;5.80;;;2.83;;
73452;SDS011;61687;56.232;43.854;2023-08-21T03:39:34;4.85;;;2.90;;
73452;SDS011;61687;56.232;43.854;2023-08-21T03:42:00;6.38;;;3.05;;
73452;SDS011;61687;56.232;43.854;2023-08-21T03:44:26;9.43;;;3.08;;
73452;SDS011;61687;56.232;43.854;2023-08-21T03:46:52;6.43;;;3.60;;
73452;SDS011;61687;56.232;43.854;2023-08-21T03:49:18;6.10;;;3.30;;
73452;SDS011;61687;56.232;43.854;2023-08-21T03:51:44;6.38;;;3.22;;
73452;SDS011;61687;56.232;43.854;2023-08-21T03:54:10;7.82;;;3.15;;
73452;SDS011;61687;56.232;43.854;2023-08-21T03:56:36;6.05;;;3.28;;
73452;SDS011;61687;56.232;43.854;2023-08-21T03:59:02;5.87;;;3.40;;
73452;SDS011;61687;56.232;43.854;2023-08-21T04:01:28;5.97;;;3.30;;
73452;SDS011;61687;56.232;43.854;2023-08-21T04:03:54;6.70;;;4.25;;
73452;SDS011;61687;56.232;43.854;2023-08-21T04:06:20;5.80;;;3.57;;
73452;SDS011;61687;56.232;43.854;2023-08-21T04:08:47;8.25;;;3.85;;
73452;SDS011;61687;56.232;43.854;2023-08-21T04:11:13;8.85;;;4.72;;
73452;SDS011;61687;56.232;43.854;2023-08-21T04:13:39;6.38;;;3.50;;
73452;SDS011;61687;56.232;43.854;2023-08-21T04:16:05;9.07;;;4.50;;
73452;SDS011;61687;56.232;43.854;2023-08-21T04:18:31;6.50;;;3.92;;
73452;SDS011;61687;56.232;43.854;2023-08-21T04:20:58;8.65;;;4.40;;
73452;SDS011;61687;56.232;43.854;2023-08-21T04:23:24;6.50;;;3.92;;
73452;SDS011;61687;56.232;43.854;2023-08-21T04:25:50;8.00;;;4.30;;
73452;SDS011;61687;56.232;43.854;2023-08-21T04:28:15;7.03;;;3.97;;
73452;SDS011;61687;56.232;43.854;2023-08-21T04:30:41;8.10;;;4.15;;
73452;SDS011;61687;56.232;43.854;2023-08-21T04:33:08;8.43;;;4.15;;
73452;SDS011;61687;56.232;43.854;2023-08-21T04:35:37;13.60;;;4.40;;
73452;SDS011;61687;56.232;43.854;2023-08-21T04:38:04;8.45;;;4.70;;
73452;SDS011;61687;56.232;43.854;2023-08-21T04:40:30;8.32;;;4.22;;
73452;SDS011;61687;56.232;43.854;2023-08-21T04:42:57;10.15;;;4.20;;
73452;SDS011;61687;56.232;43.854;2023-08-21T04:45:23;8.77;;;4.40;;
73452;SDS011;61687;56.232;43.854;2023-08-21T04:47:49;7.68;;;4.55;;
73452;SDS011;61687;56.232;43.854;2023-08-21T04:50:15;8.20;;;4.43;;
73452;SDS011;61687;56.232;43.854;2023-08-21T04:52:41;7.60;;;4.50;;
73452;SDS011;61687;56.232;43.854;2023-08-21T04:55:08;5.45;;;3.53;;
73452;SDS011;61687;56.232;43.854;2023-08-21T04:57:36;5.57;;;3.73;;
73452;SDS011;61687;56.232;43.854;2023-08-21T05:00:06;8.80;;;3.45;;
73452;SDS011;61687;56.232;43.854;2023-08-21T05:02:36;6.15;;;3.70;;
73452;SDS011;61687;56.232;43.854;2023-08-21T05:05:02;6.20;;;3.42;;
73452;SDS011;61687;56.232;43.854;2023-08-21T05:07:31;5.57;;;3.03;;
73452;SDS011;61687;56.232;43.854;2023-08-21T05:09:59;5.50;;;3.10;;
73452;SDS011;61687;56.232;43.854;2023-08-21T05:12:30;5.45;;;3.63;;
73452;SDS011;61687;56.232;43.854;2023-08-21T05:14:58;5.20;;;3.08;;
73452;SDS011;61687;56.232;43.854;2023-08-21T05:17:25;6.70;;;3.20;;
73452;SDS011;61687;56.232;43.854;2023-08-21T05:19:52;6.57;;;3.10;;
73452;SDS011;61687;56.232;43.854;2023-08-21T05:22:19;6.35;;;2.80;;
73452;SDS011;61687;56.232;43.854;2023-08-21T05:24:45;5.45;;;3.00;;
73452;SDS011;61687;56.232;43.854;2023-08-21T05:27:11;6.00;;;2.75;;
73452;SDS011;61687;56.232;43.854;2023-08-21T05:29:37;6.43;;;3.00;;
73452;SDS011;61687;56.232;43.854;2023-08-21T05:32:03;6.05;;;4.03;;
73452;SDS011;61687;56.232;43.854;2023-08-21T05:34:30;6.72;;;2.80;;
73452;SDS011;61687;56.232;43.854;2023-08-21T05:36:56;8.90;;;3.53;;
73452;SDS011;61687;56.232;43.854;2023-08-21T05:39:22;6.30;;;3.67;;
73452;SDS011;61687;56.232;43.854;2023-08-21T05:41:49;6.43;;;3.75;;
73452;SDS011;61687;56.232;43.854;2023-08-21T05:44:15;6.63;;;4.18;;
73452;SDS011;61687;56.232;43.854;2023-08-21T05:46:41;7.13;;;3.80;;
73452;SDS011;61687;56.232;43.854;2023-08-21T05:49:07;5.40;;;3.13;;
73452;SDS011;61687;56.232;43.854;2023-08-21T05:51:33;5.63;;;3.10;;
73452;SDS011;61687;56.232;43.854;2023-08-21T05:54:00;6.97;;;3.33;;
73452;SDS011;61687;56.232;43.854;2023-08-21T05:56:26;4.50;;;3.03;;
73452;SDS011;61687;56.232;43.854;2023-08-21T05:58:52;5.90;;;3.30;;
73452;SDS011;61687;56.232;43.854;2023-08-21T06:01:18;5.40;;;2.83;;
73452;SDS011;61687;56.232;43.854;2023-08-21T06:03:44;5.65;;;3.47;;
73452;SDS011;61687;56.232;43.854;2023-08-21T06:06:33;4.80;;;3.17;;
73452;SDS011;61687;56.232;43.854;2023-08-21T06:08:59;4.83;;;2.93;;
73452;SDS011;61687;56.232;43.854;2023-08-21T06:11:25;5.10;;;3.10;;
73452;SDS011;61687;56.232;43.854;2023-08-21T06:13:51;6.70;;;3.13;;
73452;SDS011;61687;56.232;43.854;2023-08-21T06:16:16;6.50;;;3.10;;
73452;SDS011;61687;56.232;43.854;2023-08-21T06:18:44;6.77;;;3.87;;
73452;SDS011;61687;56.232;43.854;2023-08-21T06:21:10;5.05;;;3.50;;
73452;SDS011;61687;56.232;43.854;2023-08-21T06:23:36;5.03;;;3.00;;
73452;SDS011;61687;56.232;43.854;2023-08-21T06:26:02;5.13;;;2.83;;
73452;SDS011;61687;56.232;43.854;2023-08-21T06:28:29;7.60;;;3.15;;
73452;SDS011;61687;56.232;43.854;2023-08-21T06:30:56;4.75;;;2.85;;
73452;SDS011;61687;56.232;43.854;2023-08-21T06:33:28;6.43;;;2.80;;
73452;SDS011;61687;56.232;43.854;2023-08-21T06:35:54;7.63;;;2.80;;
73452;SDS011;61687;56.232;43.854;2023-08-21T06:38:20;6.87;;;3.30;;
73452;SDS011;61687;56.232;43.854;2023-08-21T06:40:45;6.20;;;3.08;;
73452;SDS011;61687;56.232;43.854;2023-08-21T06:43:11;5.73;;;2.90;;
73452;SDS011;61687;56.232;43.854;2023-08-21T06:45:42;5.07;;;2.90;;
73452;SDS011;61687;56.232;43.854;2023-08-21T06:48:08;5.47;;;2.70;;
73452;SDS011;61687;56.232;43.854;2023-08-21T06:50:34;5.43;;;2.45;;
73452;SDS011;61687;56.232;43.854;2023-08-21T06:53:02;7.13;;;2.70;;
73452;SDS011;61687;56.232;43.854;2023-08-21T06:55:28;7.03;;;2.97;;
73452;SDS011;61687;56.232;43.854;2023-08-21T06:57:54;5.05;;;2.67;;
73452;SDS011;61687;56.232;43.854;2023-08-21T07:00:20;4.55;;;3.00;;
73452;SDS011;61687;56.232;43.854;2023-08-21T07:02:45;8.83;;;3.17;;
73452;SDS011;61687;56.232;43.854;2023-08-21T07:05:11;4.18;;;2.42;;
73452;SDS011;61687;56.232;43.854;2023-08-21T07:07:37;6.38;;;3.10;;
73452;SDS011;61687;56.232;43.854;2023-08-21T07:10:03;4.67;;;3.00;;
73452;SDS011;61687;56.232;43.854;2023-08-21T07:12:30;5.63;;;2.40;;
73452;SDS011;61687;56.232;43.854;2023-08-21T07:14:56;6.45;;;2.70;;
73452;SDS011;61687;56.232;43.854;2023-08-21T07:17:21;5.87;;;2.43;;
73452;SDS011;61687;56.232;43.854;2023-08-21T07:19:47;6.68;;;2.50;;
73452;SDS011;61687;56.232;43.854;2023-08-21T07:22:14;4.93;;;2.40;;
73452;SDS011;61687;56.232;43.854;2023-08-21T07:24:40;3.53;;;2.20;;
73452;SDS011;61687;56.232;43.854;2023-08-21T07:27:06;6.88;;;2.80;;
73452;SDS011;61687;56.232;43.854;2023-08-21T07:29:32;5.40;;;2.92;;
73452;SDS011;61687;56.232;43.854;2023-08-21T07:31:57;5.87;;;2.47;;
73452;SDS011;61687;56.232;43.854;2023-08-21T07:34:23;4.47;;;2.30;;
73452;SDS011;61687;56.232;43.854;2023-08-21T07:36:49;6.40;;;2.97;;
73452;SDS011;61687;56.232;43.854;2023-08-21T07:39:15;3.90;;;2.20;;
73452;SDS011;61687;56.232;43.854;2023-08-21T07:41:41;4.40;;;2.20;;
73452;SDS011;61687;56.232;43.854;2023-08-21T07:44:06;5.17;;;2.60;;
73452;SDS011;61687;56.232;43.854;2023-08-21T07:46:32;9.50;;;2.25;;
73452;SDS011;61687;56.232;43.854;2023-08-21T07:48:58;5.03;;;2.30;;
73452;SDS011;61687;56.232;43.854;2023-08-21T07:51:24;7.30;;;2.20;;
73452;SDS011;61687;56.232;43.854;2023-08-21T07:53:50;6.25;;;2.85;;
73452;SDS011;61687;56.232;43.854;2023-08-21T07:56:16;4.47;;;2.38;;
73452;SDS011;61687;56.232;43.854;2023-08-21T07:58:42;5.17;;;2.60;;
73452;SDS011;61687;56.232;43.854;2023-08-21T08:01:07;5.45;;;2.60;;
73452;SDS011;61687;56.232;43.854;2023-08-21T08:03:33;6.87;;;2.90;;
73452;SDS011;61687;56.232;43.854;2023-08-21T08:06:00;5.03;;;2.20;;
73452;SDS011;61687;56.232;43.854;2023-08-21T08:08:25;6.50;;;2.90;;
73452;SDS011;61687;56.232;43.854;2023-08-21T08:10:51;7.75;;;2.88;;
73452;SDS011;61687;56.232;43.854;2023-08-21T08:13:17;5.57;;;2.23;;
73452;SDS011;61687;56.232;43.854;2023-08-21T08:15:43;4.35;;;2.40;;
73452;SDS011;61687;56.232;43.854;2023-08-21T08:18:12;6.32;;;2.35;;
73452;SDS011;61687;56.232;43.854;2023-08-21T08:20:39;3.63;;;2.13;;
73452;SDS011;61687;56.232;43.854;2023-08-21T08:23:05;3.88;;;2.20;;
73452;SDS011;61687;56.232;43.854;2023-08-21T08:25:31;5.60;;;2.33;;
73452;SDS011;61687;56.232;43.854;2023-08-21T08:27:57;5.30;;;2.50;;
73452;SDS011;61687;56.232;43.854;2023-08-21T08:30:23;6.60;;;2.37;;
73452;SDS011;61687;56.232;43.854;2023-08-21T08:32:49;7.05;;;2.20;;
73452;SDS011;61687;56.232;43.854;2023-08-21T08:35:15;6.38;;;2.30;;
73452;SDS011;61687;56.232;43.854;2023-08-21T08:37:41;4.93;;;2.17;;
73452;SDS011;61687;56.232;43.854;2023-08-21T08:40:09;7.78;;;2.15;;
73452;SDS011;61687;56.232;43.854;2023-08-21T08:42:37;5.03;;;2.57;;
73452;SDS011;61687;56.232;43.854;2023-08-21T08:45:04;4.93;;;2.20;;
73452;SDS011;61687;56.232;43.854;2023-08-21T08:47:35;3.75;;;1.92;;
73452;SDS011;61687;56.232;43.854;2023-08-21T08:50:05;4.43;;;1.95;;
73452;SDS011;61687;56.232;43.854;2023-08-21T08:52:34;5.20;;;2.55;;
73452;SDS011;61687;56.232;43.854;2023-08-21T08:55:02;5.50;;;2.30;;
73452;SDS011;61687;56.232;43.854;2023-08-21T08:57:31;5.72;;;2.42;;
73452;SDS011;61687;56.232;43.854;2023-08-21T08:59:57;4.22;;;2.05;;
73452;SDS011;61687;56.232;43.854;2023-08-21T09:02:24;4.82;;;2.10;;
73452;SDS011;61687;56.232;43.854;2023-08-21T09:04:52;4.23;;;2.17;;
73452;SDS011;61687;56.232;43.854;2023-08-21T09:07:18;6.47;;;2.40;;
73452;SDS011;61687;56.232;43.854;2023-08-21T09:09:46;5.03;;;2.50;;
73452;SDS011;61687;56.232;43.854;2023-08-21T09:12:19;6.93;;;2.65;;
73452;SDS011;61687;56.232;43.854;2023-08-21T09:14:46;7.97;;;2.60;;
73452;SDS011;61687;56.232;43.854;2023-08-21T09:17:13;6.87;;;2.60;;
73452;SDS011;61687;56.232;43.854;2023-08-21T09:19:40;4.95;;;2.00;;
73452;SDS011;61687;56.232;43.854;2023-08-21T09:22:10;5.50;;;2.40;;
73452;SDS011;61687;56.232;43.854;2023-08-21T09:25:00;5.70;;;2.10;;
73452;SDS011;61687;56.232;43.854;2023-08-21T09:27:35;6.28;;;2.58;;
73452;SDS011;61687;56.232;43.854;2023-08-21T09:30:03;5.43;;;1.90;;
73452;SDS011;61687;56.232;43.854;2023-08-21T09:32:51;4.82;;;2.03;;
73452;SDS011;61687;56.232;43.854;2023-08-21T09:35:23;6.75;;;2.45;;
73452;SDS011;61687;56.232;43.854;2023-08-21T09:37:49;5.90;;;2.40;;
73452;SDS011;61687;56.232;43.854;2023-08-21T09:40:19;7.15;;;2.20;;
73452;SDS011;61687;56.232;43.854;2023-08-21T09:42:51;10.90;;;2.57;;
73452;SDS011;61687;56.232;43.854;2023-08-21T09:45:22;8.20;;;2.60;;
73452;SDS011;61687;56.232;43.854;2023-08-21T09:47:48;6.18;;;2.45;;
73452;SDS011;61687;56.232;43.854;2023-08-21T09:50:15;6.13;;;2.28;;
73452;SDS011;61687;56.232;43.854;2023-08-21T09:52:41;6.55;;;2.00;;
73452;SDS011;61687;56.232;43.854;2023-08-21T09:55:13;5.57;;;1.93;;
73452;SDS011;61687;56.232;43.854;2023-08-21T09:57:40;4.63;;;2.03;;
73452;SDS011;61687;56.232;43.854;2023-08-21T10:00:08;10.02;;;2.72;;
73452;SDS011;61687;56.232;43.854;2023-08-21T10:02:45;4.10;;;2.10;;
73452;SDS011;61687;56.232;43.854;2023-08-21T10:05:19;5.88;;;2.30;;
73452;SDS011;61687;56.232;43.854;2023-08-21T10:07:47;3.93;;;1.90;;
73452;SDS011;61687;56.232;43.854;2023-08-21T10:10:14;4.43;;;1.80;;
73452;SDS011;61687;56.232;43.854;2023-08-21T10:12:40;5.50;;;2.28;;
73452;SDS011;61687;56.232;43.854;2023-08-21T10:15:06;5.18;;;1.58;;
73452;SDS011;61687;56.232;43.854;2023-08-21T10:17:35;5.07;;;1.88;;
73452;SDS011;61687;56.232;43.854;2023-08-21T10:20:05;4.77;;;1.80;;
73452;SDS011;61687;56.232;43.854;2023-08-21T10:22:52;4.18;;;1.70;;
73452;SDS011;61687;56.232;43.854;2023-08-21T10:25:23;5.28;;;1.77;;
73452;SDS011;61687;56.232;43.854;2023-08-21T10:27:52;6.07;;;2.00;;
73452;SDS011;61687;56.232;43.854;2023-08-21T10:30:24;5.43;;;2.20;;
73452;SDS011;61687;56.232;43.854;2023-08-21T10:32:53;6.60;;;2.30;;
73452;SDS011;61687;56.232;43.854;2023-08-21T10:35:28;5.00;;;2.10;;
73452;SDS011;61687;56.232;43.854;2023-08-21T10:38:05;5.82;;;1.88;;
73452;SDS011;61687;56.232;43.854;2023-08-21T10:41:03;4.47;;;1.83;;
73452;SDS011;61687;56.232;43.854;2023-08-21T10:43:40;8.35;;;2.13;;
73452;SDS011;61687;56.232;43.854;2023-08-21T10:46:07;4.27;;;1.83;;
73452;SDS011;61687;56.232;43.854;2023-08-21T10:48:35;5.88;;;1.90;;
73452;SDS011;61687;56.232;43.854;2023-08-21T10:51:02;5.18;;;1.90;;
73452;SDS011;61687;56.232;43.854;2023-08-21T10:53:29;5.40;;;1.90;;
73452;SDS011;61687;56.232;43.854;2023-08-21T10:55:56;3.83;;;1.83;;
73452;SDS011;61687;56.232;43.854;2023-08-21T10:58:23;5.30;;;2.07;;
73452;SDS011;61687;56.232;43.854;2023-08-21T11:00:58;4.03;;;1.83;;
73452;SDS011;61687;56.232;43.854;2023-08-21T11:03:25;4.75;;;2.20;;
73452;SDS011;61687;56.232;43.854;2023-08-21T11:08:49;5.07;;;1.77;;
73452;SDS011;61687;56.232;43.854;2023-08-21T11:11:16;3.43;;;1.93;;
73452;SDS011;61687;56.232;43.854;2023-08-21T11:13:48;4.10;;;2.10;;
73452;SDS011;61687;56.232;43.854;2023-08-21T11:16:18;6.68;;;2.00;;
73452;SDS011;61687;56.232;43.854;2023-08-21T11:18:44;5.10;;;2.60;;
73452;SDS011;61687;56.232;43.854;2023-08-21T11:21:10;6.28;;;1.92;;
73452;SDS011;61687;56.232;43.854;2023-08-21T11:23:40;6.30;;;2.50;;
73452;SDS011;61687;56.232;43.854;2023-08-21T11:26:09;4.35;;;1.88;;
73452;SDS011;61687;56.232;43.854;2023-08-21T11:28:36;8.18;;;2.00;;
73452;SDS011;61687;56.232;43.854;2023-08-21T11:31:04;9.97;;;2.03;;
73452;SDS011;61687;56.232;43.854;2023-08-21T11:33:31;4.13;;;2.15;;
73452;SDS011;61687;56.232;43.854;2023-08-21T11:35:58;3.45;;;1.90;;
73452;SDS011;61687;56.232;43.854;2023-08-21T11:38:26;3.88;;;2.00;;
73452;SDS011;61687;56.232;43.854;2023-08-21T11:43:19;4.60;;;2.27;;
73452;SDS011;61687;56.232;43.854;2023-08-21T11:45:45;6.30;;;2.35;;
73452;SDS011;61687;56.232;43.854;2023-08-21T11:48:11;5.10;;;2.28;;
73452;SDS011;61687;56.232;43.854;2023-08-21T11:50:38;5.37;;;2.10;;
73452;SDS011;61687;56.232;43.854;2023-08-21T11:53:04;6.50;;;2.67;;
73452;SDS011;61687;56.232;43.854;2023-08-21T11:55:31;4.35;;;2.25;;
73452;SDS011;61687;56.232;43.854;2023-08-21T11:57:57;4.90;;;2.60;;
73452;SDS011;61687;56.232;43.854;2023-08-21T12:00:29;4.45;;;2.47;;
73452;SDS011;61687;56.232;43.854;2023-08-21T12:02:56;6.75;;;2.65;;
73452;SDS011;61687;56.232;43.854;2023-08-21T12:05:24;4.97;;;2.67;;
73452;SDS011;61687;56.232;43.854;2023-08-21T12:07:51;5.13;;;2.60;;
73452;SDS011;61687;56.232;43.854;2023-08-21T12:10:24;7.28;;;3.25;;
73452;SDS011;61687;56.232;43.854;2023-08-21T12:12:51;7.97;;;3.28;;
73452;SDS011;61687;56.232;43.854;2023-08-21T12:15:17;4.03;;;2.53;;
73452;SDS011;61687;56.232;43.854;2023-08-21T12:17:43;4.33;;;2.47;;
73452;SDS011;61687;56.232;43.854;2023-08-21T12:20:09;6.15;;;2.47;;
73452;SDS011;61687;56.232;43.854;2023-08-21T12:22:39;5.45;;;2.80;;
73452;SDS011;61687;56.232;43.854;2023-08-21T12:25:06;5.30;;;2.95;;
73452;SDS011;61687;56.232;43.854;2023-08-21T12:27:33;5.10;;;2.83;;
73452;SDS011;61687;56.232;43.854;2023-08-21T12:29:58;5.15;;;2.78;;
73452;SDS011;61687;56.232;43.854;2023-08-21T12:32:24;4.95;;;2.70;;
73452;SDS011;61687;56.232;43.854;2023-08-21T12:34:50;6.70;;;2.47;;
73452;SDS011;61687;56.232;43.854;2023-08-21T12:37:17;3.80;;;2.20;;
73452;SDS011;61687;56.232;43.854;2023-08-21T12:39:44;4.38;;;2.22;;
73452;SDS011;61687;56.232;43.854;2023-08-21T12:42:10;7.55;;;2.58;;
73452;SDS011;61687;56.232;43.854;2023-08-21T12:44:35;4.87;;;2.30;;
73452;SDS011;61687;56.232;43.854;2023-08-21T12:47:01;5.90;;;2.42;;
73452;SDS011;61687;56.232;43.854;2023-08-21T12:49:28;3.95;;;2.22;;
73452;SDS011;61687;56.232;43.854;2023-08-21T12:51:54;4.53;;;2.50;;
73452;SDS011;61687;56.232;43.854;2023-08-21T12:54:20;4.83;;;2.60;;
73452;SDS011;61687;56.232;43.854;2023-08-21T12:56:46;5.72;;;2.20;;
73452;SDS011;61687;56.232;43.854;2023-08-21T12:59:12;4.07;;;2.90;;
73452;SDS011;61687;56.232;43.854;2023-08-21T13:01:39;4.78;;;2.70;;
73452;SDS011;61687;56.232;43.854;2023-08-21T13:04:05;4.47;;;2.50;;
73452;SDS011;61687;56.232;43.854;2023-08-21T13:06:31;4.53;;;2.90;;
73452;SDS011;61687;56.232;43.854;2023-08-21T13:08:57;5.53;;;3.10;;
73452;SDS011;61687;56.232;43.854;2023-08-21T13:11:23;3.73;;;2.73;;
73452;SDS011;61687;56.232;43.854;2023-08-21T13:13:48;4.13;;;2.53;;
73452;SDS011;61687;56.232;43.854;2023-08-21T13:16:14;4.70;;;3.00;;
73452;SDS011;61687;56.232;43.854;2023-08-21T13:18:40;4.97;;;2.80;;
73452;SDS011;61687;56.232;43.854;2023-08-21T13:21:07;3.93;;;2.50;;
73452;SDS011;61687;56.232;43.854;2023-08-21T13:23:33;6.93;;;3.08;;
73452;SDS011;61687;56.232;43.854;2023-08-21T13:26:00;4.45;;;2.55;;
73452;SDS011;61687;56.232;43.854;2023-08-21T13:28:27;4.10;;;2.53;;
73452;SDS011;61687;56.232;43.854;2023-08-21T13:30:53;3.90;;;2.50;;
73452;SDS011;61687;56.232;43.854;2023-08-21T13:33:19;9.25;;;2.40;;
73452;SDS011;61687;56.232;43.854;2023-08-21T13:35:45;8.00;;;2.58;;
73452;SDS011;61687;56.232;43.854;2023-08-21T13:38:12;11.15;;;2.42;;
73452;SDS011;61687;56.232;43.854;2023-08-21T13:40:39;5.72;;;2.40;;
73452;SDS011;61687;56.232;43.854;2023-08-21T13:43:06;4.33;;;2.13;;
73452;SDS011;61687;56.232;43.854;2023-08-21T13:45:35;7.43;;;2.72;;
73452;SDS011;61687;56.232;43.854;2023-08-21T13:48:01;5.07;;;2.80;;
73452;SDS011;61687;56.232;43.854;2023-08-21T13:50:28;4.60;;;2.50;;
73452;SDS011;61687;56.232;43.854;2023-08-21T13:52:54;3.90;;;2.50;;
73452;SDS011;61687;56.232;43.854;2023-08-21T13:55:20;3.65;;;2.00;;
73452;SDS011;61687;56.232;43.854;2023-08-21T13:57:46;3.97;;;2.17;;
73452;SDS011;61687;56.232;43.854;2023-08-21T14:00:12;3.67;;;2.03;;
73452;SDS011;61687;56.232;43.854;2023-08-21T14:02:38;5.40;;;2.25;;
73452;SDS011;61687;56.232;43.854;2023-08-21T14:05:07;3.97;;;2.08;;
73452;SDS011;61687;56.232;43.854;2023-08-21T14:07:34;4.47;;;2.28;;
73452;SDS011;61687;56.232;43.854;2023-08-21T14:10:00;5.03;;;2.30;;
73452;SDS011;61687;56.232;43.854;2023-08-21T14:12:29;4.70;;;2.30;;
73452;SDS011;61687;56.232;43.854;2023-08-21T14:14:56;5.07;;;2.50;;
73452;SDS011;61687;56.232;43.854;2023-08-21T14:17:22;5.15;;;2.40;;
73452;SDS011;61687;56.232;43.854;2023-08-21T14:19:48;5.50;;;2.63;;
73452;SDS011;61687;56.232;43.854;2023-08-21T14:22:14;3.83;;;2.37;;
73452;SDS011;61687;56.232;43.854;2023-08-21T14:24:40;3.90;;;2.20;;
73452;SDS011;61687;56.232;43.854;2023-08-21T14:27:05;3.93;;;2.27;;
73452;SDS011;61687;56.232;43.854;2023-08-21T14:29:31;3.97;;;2.00;;
73452;SDS011;61687;56.232;43.854;2023-08-21T14:32:00;4.05;;;2.20;;
73452;SDS011;61687;56.232;43.854;2023-08-21T14:34:26;5.82;;;1.92;;
73452;SDS011;61687;56.232;43.854;2023-08-21T14:36:55;4.17;;;2.00;;
73452;SDS011;61687;56.232;43.854;2023-08-21T14:39:24;5.05;;;2.05;;
73452;SDS011;61687;56.232;43.854;2023-08-21T14:41:57;6.88;;;2.55;;
73452;SDS011;61687;56.232;43.854;2023-08-21T14:44:23;4.40;;;2.10;;